sensor_id;sensor_type;location;lat;lon;timestamp;P1;durP1;ratioP1;P2;durP2;ratioP2
1400;SDS011;46518;48.842;8.926;2023-02-13T00:01:13;14.82;;;10.63;;
1400;SDS011;46518;48.842;8.926;2023-02-13T00:03:41;16.35;;;11.60;;
1400;SDS011;46518;48.842;8.926;2023-02-13T00:06:09;15.70;;;10.55;;
1400;SDS011;46518;48.842;8.926;2023-02-13T00:08:38;15.50;;;11.05;;
1400;SDS011;46518;48.842;8.926;2023-02-13T00:11:06;18.20;;;11.63;;
1400;SDS011;46518;48.842;8.926;2023-02-13T00:13:35;17.10;;;11.55;;
1400;SDS011;46518;48.842;8.926;2023-02-13T00:16:06;19.85;;;13.00;;
1400;SDS011;46518;48.842;8.926;2023-02-13T00:18:40;18.23;;;12.30;;
1400;SDS011;46518;48.842;8.926;2023-02-13T00:21:11;17.88;;;13.82;;
1400;SDS011;46518;48.842;8.926;2023-02-13T00:23:41;16.00;;;11.50;;
1400;SDS011;46518;48.842;8.926;2023-02-13T00:26:12;15.90;;;12.10;;
1400;SDS011;46518;48.842;8.926;2023-02-13T00:28:45;26.05;;;13.98;;
1400;SDS011;46518;48.842;8.926;2023-02-13T00:31:15;18.27;;;13.00;;
1400;SDS011;46518;48.842;8.926;2023-02-13T00:33:48;16.42;;;12.30;;
1400;SDS011;46518;48.842;8.926;2023-02-13T00:36:18;16.10;;;12.23;;
1400;SDS011;46518;48.842;8.926;2023-02-13T00:38:50;19.98;;;14.07;;
1400;SDS011;46518;48.842;8.926;2023-02-13T00:41:20;19.83;;;13.50;;
1400;SDS011;46518;48.842;8.926;2023-02-13T00:43:52;19.70;;;12.88;;
1400;SDS011;46518;48.842;8.926;2023-02-13T00:46:21;15.50;;;11.05;;
1400;SDS011;46518;48.842;8.926;2023-02-13T00:48:52;23.10;;;13.63;;
1400;SDS011;46518;48.842;8.926;2023-02-13T00:51:28;20.73;;;13.70;;
1400;SDS011;46518;48.842;8.926;2023-02-13T00:54:06;22.08;;;12.98;;
1400;SDS011;46518;48.842;8.926;2023-02-13T00:56:45;22.65;;;14.52;;
1400;SDS011;46518;48.842;8.926;2023-02-13T00:59:30;21.33;;;14.00;;
1400;SDS011;46518;48.842;8.926;2023-02-13T01:02:20;20.08;;;13.10;;
1400;SDS011;46518;48.842;8.926;2023-02-13T01:04:56;23.23;;;14.05;;
1400;SDS011;46518;48.842;8.926;2023-02-13T01:07:27;21.02;;;13.13;;
1400;SDS011;46518;48.842;8.926;2023-02-13T01:09:56;22.30;;;13.35;;
1400;SDS011;46518;48.842;8.926;2023-02-13T01:12:25;22.25;;;14.10;;
1400;SDS011;46518;48.842;8.926;2023-02-13T01:15:06;21.02;;;14.02;;
1400;SDS011;46518;48.842;8.926;2023-02-13T01:17:44;24.17;;;14.05;;
1400;SDS011;46518;48.842;8.926;2023-02-13T01:20:16;25.08;;;15.75;;
1400;SDS011;46518;48.842;8.926;2023-02-13T01:22:45;18.42;;;14.10;;
1400;SDS011;46518;48.842;8.926;2023-02-13T01:25:17;19.20;;;12.88;;
1400;SDS011;46518;48.842;8.926;2023-02-13T01:27:55;26.80;;;15.85;;
1400;SDS011;46518;48.842;8.926;2023-02-13T01:30:25;25.05;;;15.02;;
1400;SDS011;46518;48.842;8.926;2023-02-13T01:32:59;26.63;;;15.55;;
1400;SDS011;46518;48.842;8.926;2023-02-13T01:35:54;35.03;;;18.80;;
1400;SDS011;46518;48.842;8.926;2023-02-13T01:38:28;26.48;;;15.68;;
1400;SDS011;46518;48.842;8.926;2023-02-13T01:41:01;20.90;;;13.32;;
1400;SDS011;46518;48.842;8.926;2023-02-13T01:43:44;29.48;;;16.35;;
1400;SDS011;46518;48.842;8.926;2023-02-13T01:46:18;27.05;;;17.90;;
1400;SDS011;46518;48.842;8.926;2023-02-13T01:48:52;29.25;;;15.75;;
1400;SDS011;46518;48.842;8.926;2023-02-13T01:51:28;28.13;;;18.42;;
1400;SDS011;46518;48.842;8.926;2023-02-13T01:54:03;27.52;;;16.38;;
1400;SDS011;46518;48.842;8.926;2023-02-13T01:56:37;23.42;;;15.77;;
1400;SDS011;46518;48.842;8.926;2023-02-13T01:59:28;30.23;;;16.77;;
1400;SDS011;46518;48.842;8.926;2023-02-13T02:02:11;23.75;;;15.70;;
1400;SDS011;46518;48.842;8.926;2023-02-13T02:04:59;24.08;;;15.25;;
1400;SDS011;46518;48.842;8.926;2023-02-13T02:07:48;27.45;;;17.27;;
1400;SDS011;46518;48.842;8.926;2023-02-13T02:10:27;26.13;;;15.43;;
1400;SDS011;46518;48.842;8.926;2023-02-13T02:13:05;25.20;;;16.23;;
1400;SDS011;46518;48.842;8.926;2023-02-13T02:15:39;25.30;;;16.08;;
1400;SDS011;46518;48.842;8.926;2023-02-13T02:18:19;29.02;;;17.00;;
1400;SDS011;46518;48.842;8.926;2023-02-13T02:21:05;28.85;;;17.30;;
1400;SDS011;46518;48.842;8.926;2023-02-13T02:27:24;31.10;;;16.83;;
1400;SDS011;46518;48.842;8.926;2023-02-13T02:33:39;22.10;;;14.80;;
1400;SDS011;46518;48.842;8.926;2023-02-13T02:36:56;23.95;;;16.23;;
1400;SDS011;46518;48.842;8.926;2023-02-13T02:42:57;32.40;;;18.10;;
1400;SDS011;46518;48.842;8.926;2023-02-13T02:46:04;30.25;;;16.40;;
1400;SDS011;46518;48.842;8.926;2023-02-13T02:48:56;32.22;;;18.77;;
1400;SDS011;46518;48.842;8.926;2023-02-13T02:51:54;27.42;;;17.08;;
1400;SDS011;46518;48.842;8.926;2023-02-13T02:54:45;29.10;;;17.42;;
1400;SDS011;46518;48.842;8.926;2023-02-13T02:57:51;28.65;;;17.08;;
1400;SDS011;46518;48.842;8.926;2023-02-13T03:00:44;28.92;;;16.42;;
1400;SDS011;46518;48.842;8.926;2023-02-13T03:03:34;31.13;;;17.73;;
1400;SDS011;46518;48.842;8.926;2023-02-13T03:06:24;31.63;;;18.15;;
1400;SDS011;46518;48.842;8.926;2023-02-13T03:09:00;29.20;;;18.33;;
1400;SDS011;46518;48.842;8.926;2023-02-13T03:11:47;28.23;;;15.95;;
1400;SDS011;46518;48.842;8.926;2023-02-13T03:14:36;34.13;;;18.55;;
1400;SDS011;46518;48.842;8.926;2023-02-13T03:17:05;29.15;;;16.83;;
1400;SDS011;46518;48.842;8.926;2023-02-13T03:19:57;27.25;;;16.20;;
1400;SDS011;46518;48.842;8.926;2023-02-13T03:22:59;30.73;;;18.48;;
1400;SDS011;46518;48.842;8.926;2023-02-13T03:25:37;34.28;;;17.58;;
1400;SDS011;46518;48.842;8.926;2023-02-13T03:28:16;35.10;;;17.90;;
1400;SDS011;46518;48.842;8.926;2023-02-13T03:31:11;33.95;;;18.88;;
1400;SDS011;46518;48.842;8.926;2023-02-13T03:33:53;35.13;;;19.98;;
1400;SDS011;46518;48.842;8.926;2023-02-13T03:36:31;46.15;;;21.60;;
1400;SDS011;46518;48.842;8.926;2023-02-13T03:39:26;45.05;;;21.30;;
1400;SDS011;46518;48.842;8.926;2023-02-13T03:42:04;40.47;;;22.90;;
1400;SDS011;46518;48.842;8.926;2023-02-13T03:44:38;44.97;;;24.98;;
1400;SDS011;46518;48.842;8.926;2023-02-13T03:47:11;47.03;;;26.45;;
1400;SDS011;46518;48.842;8.926;2023-02-13T03:49:43;34.42;;;22.35;;
1400;SDS011;46518;48.842;8.926;2023-02-13T03:52:34;47.33;;;25.50;;
1400;SDS011;46518;48.842;8.926;2023-02-13T03:55:12;40.45;;;23.95;;
1400;SDS011;46518;48.842;8.926;2023-02-13T03:58:01;44.72;;;21.73;;
1400;SDS011;46518;48.842;8.926;2023-02-13T04:00:50;31.85;;;18.63;;
1400;SDS011;46518;48.842;8.926;2023-02-13T04:03:24;29.38;;;17.67;;
1400;SDS011;46518;48.842;8.926;2023-02-13T04:05:57;30.30;;;19.10;;
1400;SDS011;46518;48.842;8.926;2023-02-13T04:08:32;30.55;;;18.38;;
1400;SDS011;46518;48.842;8.926;2023-02-13T04:11:04;28.40;;;18.13;;
1400;SDS011;46518;48.842;8.926;2023-02-13T04:13:37;28.98;;;17.23;;
1400;SDS011;46518;48.842;8.926;2023-02-13T04:16:11;33.63;;;19.35;;
1400;SDS011;46518;48.842;8.926;2023-02-13T04:18:45;33.58;;;17.85;;
1400;SDS011;46518;48.842;8.926;2023-02-13T04:21:16;30.30;;;17.95;;
1400;SDS011;46518;48.842;8.926;2023-02-13T04:23:44;31.50;;;17.63;;
1400;SDS011;46518;48.842;8.926;2023-02-13T04:26:15;30.92;;;18.45;;
1400;SDS011;46518;48.842;8.926;2023-02-13T04:28:45;34.42;;;20.20;;
1400;SDS011;46518;48.842;8.926;2023-02-13T04:31:16;37.08;;;19.77;;
1400;SDS011;46518;48.842;8.926;2023-02-13T04:33:45;30.08;;;17.08;;
1400;SDS011;46518;48.842;8.926;2023-02-13T04:36:13;31.92;;;18.02;;
1400;SDS011;46518;48.842;8.926;2023-02-13T04:38:43;26.95;;;18.15;;
1400;SDS011;46518;48.842;8.926;2023-02-13T04:41:14;29.08;;;18.88;;
1400;SDS011;46518;48.842;8.926;2023-02-13T04:43:42;36.10;;;19.23;;
1400;SDS011;46518;48.842;8.926;2023-02-13T04:46:11;32.90;;;19.20;;
1400;SDS011;46518;48.842;8.926;2023-02-13T04:48:41;31.10;;;18.00;;
1400;SDS011;46518;48.842;8.926;2023-02-13T04:51:11;33.97;;;21.13;;
1400;SDS011;46518;48.842;8.926;2023-02-13T04:53:42;32.92;;;19.13;;
1400;SDS011;46518;48.842;8.926;2023-02-13T04:56:14;31.58;;;18.58;;
1400;SDS011;46518;48.842;8.926;2023-02-13T04:58:47;35.72;;;22.20;;
1400;SDS011;46518;48.842;8.926;2023-02-13T05:01:21;31.15;;;18.60;;
1400;SDS011;46518;48.842;8.926;2023-02-13T05:03:54;30.17;;;18.05;;
1400;SDS011;46518;48.842;8.926;2023-02-13T05:06:24;33.03;;;17.77;;
1400;SDS011;46518;48.842;8.926;2023-02-13T05:08:55;35.38;;;18.63;;
1400;SDS011;46518;48.842;8.926;2023-02-13T05:11:35;29.45;;;17.50;;
1400;SDS011;46518;48.842;8.926;2023-02-13T05:14:04;33.70;;;18.23;;
1400;SDS011;46518;48.842;8.926;2023-02-13T05:16:33;28.98;;;17.55;;
1400;SDS011;46518;48.842;8.926;2023-02-13T05:19:03;25.35;;;16.58;;
1400;SDS011;46518;48.842;8.926;2023-02-13T05:21:31;35.15;;;19.25;;
1400;SDS011;46518;48.842;8.926;2023-02-13T05:24:18;34.35;;;18.15;;
1400;SDS011;46518;48.842;8.926;2023-02-13T05:26:54;27.70;;;17.73;;
1400;SDS011;46518;48.842;8.926;2023-02-13T05:29:40;29.00;;;19.00;;
1400;SDS011;46518;48.842;8.926;2023-02-13T05:32:16;31.30;;;18.80;;
1400;SDS011;46518;48.842;8.926;2023-02-13T05:34:49;34.65;;;18.23;;
1400;SDS011;46518;48.842;8.926;2023-02-13T05:37:21;29.67;;;18.33;;
1400;SDS011;46518;48.842;8.926;2023-02-13T05:39:51;30.45;;;18.98;;
1400;SDS011;46518;48.842;8.926;2023-02-13T05:42:33;35.28;;;19.80;;
1400;SDS011;46518;48.842;8.926;2023-02-13T05:45:27;28.40;;;16.58;;
1400;SDS011;46518;48.842;8.926;2023-02-13T05:48:05;34.50;;;18.60;;
1400;SDS011;46518;48.842;8.926;2023-02-13T05:50:34;33.70;;;20.77;;
1400;SDS011;46518;48.842;8.926;2023-02-13T05:53:02;26.27;;;18.25;;
1400;SDS011;46518;48.842;8.926;2023-02-13T05:55:31;28.10;;;17.35;;
1400;SDS011;46518;48.842;8.926;2023-02-13T05:58:01;34.55;;;20.83;;
1400;SDS011;46518;48.842;8.926;2023-02-13T06:00:29;31.58;;;18.88;;
1400;SDS011;46518;48.842;8.926;2023-02-13T06:02:58;39.72;;;21.77;;
1400;SDS011;46518;48.842;8.926;2023-02-13T06:05:26;33.15;;;17.42;;
1400;SDS011;46518;48.842;8.926;2023-02-13T06:07:54;34.72;;;20.00;;
1400;SDS011;46518;48.842;8.926;2023-02-13T06:10:22;38.60;;;19.63;;
1400;SDS011;46518;48.842;8.926;2023-02-13T06:12:50;33.33;;;18.58;;
1400;SDS011;46518;48.842;8.926;2023-02-13T06:15:19;33.58;;;19.90;;
1400;SDS011;46518;48.842;8.926;2023-02-13T06:17:48;28.05;;;17.55;;
1400;SDS011;46518;48.842;8.926;2023-02-13T06:20:16;31.20;;;18.52;;
1400;SDS011;46518;48.842;8.926;2023-02-13T06:22:46;30.17;;;19.60;;
1400;SDS011;46518;48.842;8.926;2023-02-13T06:25:16;35.00;;;20.88;;
1400;SDS011;46518;48.842;8.926;2023-02-13T06:27:46;30.40;;;19.25;;
1400;SDS011;46518;48.842;8.926;2023-02-13T06:30:17;32.70;;;19.50;;
1400;SDS011;46518;48.842;8.926;2023-02-13T06:32:48;32.78;;;20.42;;
1400;SDS011;46518;48.842;8.926;2023-02-13T06:35:18;31.17;;;19.35;;
1400;SDS011;46518;48.842;8.926;2023-02-13T06:37:48;35.65;;;23.95;;
1400;SDS011;46518;48.842;8.926;2023-02-13T06:40:18;31.23;;;19.30;;
1400;SDS011;46518;48.842;8.926;2023-02-13T06:42:48;31.33;;;20.67;;
1400;SDS011;46518;48.842;8.926;2023-02-13T06:45:18;28.40;;;18.95;;
1400;SDS011;46518;48.842;8.926;2023-02-13T06:47:51;32.60;;;20.27;;
1400;SDS011;46518;48.842;8.926;2023-02-13T06:50:21;35.15;;;19.50;;
1400;SDS011;46518;48.842;8.926;2023-02-13T06:52:51;41.08;;;22.05;;
1400;SDS011;46518;48.842;8.926;2023-02-13T06:55:21;35.80;;;21.60;;
1400;SDS011;46518;48.842;8.926;2023-02-13T06:57:50;32.33;;;19.88;;
1400;SDS011;46518;48.842;8.926;2023-02-13T07:00:21;28.42;;;18.30;;
1400;SDS011;46518;48.842;8.926;2023-02-13T07:02:54;35.78;;;20.23;;
1400;SDS011;46518;48.842;8.926;2023-02-13T07:05:30;29.70;;;17.50;;
1400;SDS011;46518;48.842;8.926;2023-02-13T07:08:01;29.02;;;19.60;;
1400;SDS011;46518;48.842;8.926;2023-02-13T07:10:30;34.88;;;22.90;;
1400;SDS011;46518;48.842;8.926;2023-02-13T07:13:00;40.25;;;19.20;;
1400;SDS011;46518;48.842;8.926;2023-02-13T07:15:32;32.72;;;19.08;;
1400;SDS011;46518;48.842;8.926;2023-02-13T07:18:04;29.58;;;17.23;;
1400;SDS011;46518;48.842;8.926;2023-02-13T07:20:34;27.83;;;16.17;;
1400;SDS011;46518;48.842;8.926;2023-02-13T07:23:05;31.10;;;17.38;;
1400;SDS011;46518;48.842;8.926;2023-02-13T07:25:35;27.98;;;17.38;;
1400;SDS011;46518;48.842;8.926;2023-02-13T07:28:08;30.70;;;19.27;;
1400;SDS011;46518;48.842;8.926;2023-02-13T07:30:38;30.10;;;17.98;;
1400;SDS011;46518;48.842;8.926;2023-02-13T07:33:09;30.13;;;17.73;;
1400;SDS011;46518;48.842;8.926;2023-02-13T07:35:44;28.05;;;18.02;;
1400;SDS011;46518;48.842;8.926;2023-02-13T07:38:14;28.48;;;18.55;;
1400;SDS011;46518;48.842;8.926;2023-02-13T07:40:45;29.13;;;17.35;;
1400;SDS011;46518;48.842;8.926;2023-02-13T07:43:14;22.75;;;15.07;;
1400;SDS011;46518;48.842;8.926;2023-02-13T07:45:44;20.95;;;13.38;;
1400;SDS011;46518;48.842;8.926;2023-02-13T07:48:16;23.85;;;15.07;;
1400;SDS011;46518;48.842;8.926;2023-02-13T07:50:46;23.73;;;16.60;;
1400;SDS011;46518;48.842;8.926;2023-02-13T07:53:15;30.45;;;16.80;;
1400;SDS011;46518;48.842;8.926;2023-02-13T07:56:04;29.20;;;19.67;;
1400;SDS011;46518;48.842;8.926;2023-02-13T07:58:54;36.83;;;20.30;;
1400;SDS011;46518;48.842;8.926;2023-02-13T08:01:53;27.30;;;18.80;;
1400;SDS011;46518;48.842;8.926;2023-02-13T08:04:37;39.80;;;20.75;;
1400;SDS011;46518;48.842;8.926;2023-02-13T08:07:16;34.92;;;19.48;;
1400;SDS011;46518;48.842;8.926;2023-02-13T08:09:55;36.35;;;19.83;;
1400;SDS011;46518;48.842;8.926;2023-02-13T08:12:48;31.58;;;18.10;;
1400;SDS011;46518;48.842;8.926;2023-02-13T08:15:33;29.52;;;17.45;;
1400;SDS011;46518;48.842;8.926;2023-02-13T08:18:07;30.35;;;17.73;;
1400;SDS011;46518;48.842;8.926;2023-02-13T08:20:50;33.28;;;19.40;;
1400;SDS011;46518;48.842;8.926;2023-02-13T08:23:30;27.77;;;16.95;;
1400;SDS011;46518;48.842;8.926;2023-02-13T08:26:11;32.28;;;17.25;;
1400;SDS011;46518;48.842;8.926;2023-02-13T08:28:48;29.23;;;18.13;;
1400;SDS011;46518;48.842;8.926;2023-02-13T08:31:33;32.63;;;17.83;;
1400;SDS011;46518;48.842;8.926;2023-02-13T08:34:14;30.55;;;18.30;;
1400;SDS011;46518;48.842;8.926;2023-02-13T08:36:50;30.40;;;19.85;;
1400;SDS011;46518;48.842;8.926;2023-02-13T08:39:34;37.00;;;21.38;;
1400;SDS011;46518;48.842;8.926;2023-02-13T08:42:13;35.00;;;19.60;;
1400;SDS011;46518;48.842;8.926;2023-02-13T08:44:53;36.72;;;20.02;;
1400;SDS011;46518;48.842;8.926;2023-02-13T08:47:41;36.70;;;20.48;;
1400;SDS011;46518;48.842;8.926;2023-02-13T08:50:27;33.35;;;20.20;;
1400;SDS011;46518;48.842;8.926;2023-02-13T08:53:10;35.42;;;20.80;;
1400;SDS011;46518;48.842;8.926;2023-02-13T08:55:52;32.40;;;20.10;;
1400;SDS011;46518;48.842;8.926;2023-02-13T08:58:30;33.05;;;19.98;;
1400;SDS011;46518;48.842;8.926;2023-02-13T09:01:14;35.13;;;18.88;;
1400;SDS011;46518;48.842;8.926;2023-02-13T09:03:53;28.55;;;20.33;;
1400;SDS011;46518;48.842;8.926;2023-02-13T09:06:43;25.92;;;18.25;;
1400;SDS011;46518;48.842;8.926;2023-02-13T09:09:36;26.20;;;17.60;;
1400;SDS011;46518;48.842;8.926;2023-02-13T09:12:11;26.88;;;18.35;;
1400;SDS011;46518;48.842;8.926;2023-02-13T09:14:43;26.45;;;17.58;;
1400;SDS011;46518;48.842;8.926;2023-02-13T09:17:25;31.75;;;17.60;;
1400;SDS011;46518;48.842;8.926;2023-02-13T09:20:00;26.45;;;17.83;;
1400;SDS011;46518;48.842;8.926;2023-02-13T09:22:39;26.48;;;17.27;;
1400;SDS011;46518;48.842;8.926;2023-02-13T09:25:19;25.10;;;18.00;;
1400;SDS011;46518;48.842;8.926;2023-02-13T09:27:54;27.58;;;18.90;;
1400;SDS011;46518;48.842;8.926;2023-02-13T09:30:31;25.75;;;18.08;;
1400;SDS011;46518;48.842;8.926;2023-02-13T09:33:10;30.60;;;18.20;;
1400;SDS011;46518;48.842;8.926;2023-02-13T09:35:44;24.65;;;16.65;;
1400;SDS011;46518;48.842;8.926;2023-02-13T09:38:18;25.30;;;15.48;;
1400;SDS011;46518;48.842;8.926;2023-02-13T09:40:57;20.67;;;15.35;;
1400;SDS011;46518;48.842;8.926;2023-02-13T09:43:35;26.17;;;16.52;;
1400;SDS011;46518;48.842;8.926;2023-02-13T09:46:10;21.25;;;15.55;;
1400;SDS011;46518;48.842;8.926;2023-02-13T09:48:49;19.90;;;14.65;;
1400;SDS011;46518;48.842;8.926;2023-02-13T09:51:29;20.25;;;14.05;;
1400;SDS011;46518;48.842;8.926;2023-02-13T09:54:01;22.25;;;14.75;;
1400;SDS011;46518;48.842;8.926;2023-02-13T09:56:43;22.17;;;14.20;;
1400;SDS011;46518;48.842;8.926;2023-02-13T09:59:32;18.13;;;14.95;;
1400;SDS011;46518;48.842;8.926;2023-02-13T10:02:24;24.75;;;15.82;;
1400;SDS011;46518;48.842;8.926;2023-02-13T10:05:22;22.88;;;15.60;;
1400;SDS011;46518;48.842;8.926;2023-02-13T10:08:11;21.42;;;14.20;;
1400;SDS011;46518;48.842;8.926;2023-02-13T10:10:57;19.77;;;14.57;;
1400;SDS011;46518;48.842;8.926;2023-02-13T10:13:45;21.67;;;14.70;;
1400;SDS011;46518;48.842;8.926;2023-02-13T10:16:26;17.80;;;13.55;;
1400;SDS011;46518;48.842;8.926;2023-02-13T10:19:12;18.65;;;13.60;;
1400;SDS011;46518;48.842;8.926;2023-02-13T10:21:59;20.58;;;13.50;;
1400;SDS011;46518;48.842;8.926;2023-02-13T10:24:38;20.90;;;13.13;;
1400;SDS011;46518;48.842;8.926;2023-02-13T10:27:17;18.17;;;12.32;;
1400;SDS011;46518;48.842;8.926;2023-02-13T10:29:56;16.05;;;11.38;;
1400;SDS011;46518;48.842;8.926;2023-02-13T10:32:42;17.20;;;12.80;;
1400;SDS011;46518;48.842;8.926;2023-02-13T10:35:38;18.25;;;13.05;;
1400;SDS011;46518;48.842;8.926;2023-02-13T10:38:17;18.30;;;11.90;;
1400;SDS011;46518;48.842;8.926;2023-02-13T10:41:04;15.98;;;12.63;;
1400;SDS011;46518;48.842;8.926;2023-02-13T10:43:58;18.73;;;12.10;;
1400;SDS011;46518;48.842;8.926;2023-02-13T10:46:52;16.70;;;12.13;;
1400;SDS011;46518;48.842;8.926;2023-02-13T10:49:38;30.42;;;14.73;;
1400;SDS011;46518;48.842;8.926;2023-02-13T10:52:27;17.98;;;12.50;;
1400;SDS011;46518;48.842;8.926;2023-02-13T10:55:11;18.92;;;13.30;;
1400;SDS011;46518;48.842;8.926;2023-02-13T10:58:05;18.08;;;12.77;;
1400;SDS011;46518;48.842;8.926;2023-02-13T11:00:45;21.35;;;14.45;;
1400;SDS011;46518;48.842;8.926;2023-02-13T11:03:26;18.80;;;13.23;;
1400;SDS011;46518;48.842;8.926;2023-02-13T11:06:04;23.38;;;14.00;;
1400;SDS011;46518;48.842;8.926;2023-02-13T11:08:43;20.52;;;13.55;;
1400;SDS011;46518;48.842;8.926;2023-02-13T11:11:28;17.80;;;13.48;;
1400;SDS011;46518;48.842;8.926;2023-02-13T11:14:13;18.40;;;12.10;;
1400;SDS011;46518;48.842;8.926;2023-02-13T11:16:49;17.00;;;13.02;;
1400;SDS011;46518;48.842;8.926;2023-02-13T11:19:32;20.25;;;13.35;;
1400;SDS011;46518;48.842;8.926;2023-02-13T11:22:07;22.73;;;12.95;;
1400;SDS011;46518;48.842;8.926;2023-02-13T11:24:41;20.73;;;14.35;;
1400;SDS011;46518;48.842;8.926;2023-02-13T11:27:27;15.98;;;12.73;;
1400;SDS011;46518;48.842;8.926;2023-02-13T11:30:04;17.63;;;11.55;;
1400;SDS011;46518;48.842;8.926;2023-02-13T11:32:47;19.25;;;13.23;;
1400;SDS011;46518;48.842;8.926;2023-02-13T11:35:39;14.20;;;12.70;;
1400;SDS011;46518;48.842;8.926;2023-02-13T11:38:19;17.45;;;12.02;;
1400;SDS011;46518;48.842;8.926;2023-02-13T11:41:02;16.13;;;12.63;;
1400;SDS011;46518;48.842;8.926;2023-02-13T11:43:34;14.23;;;10.90;;
1400;SDS011;46518;48.842;8.926;2023-02-13T11:46:05;18.73;;;12.82;;
1400;SDS011;46518;48.842;8.926;2023-02-13T11:48:36;15.70;;;10.80;;
1400;SDS011;46518;48.842;8.926;2023-02-13T11:51:08;13.85;;;11.30;;
1400;SDS011;46518;48.842;8.926;2023-02-13T11:53:54;16.77;;;12.50;;
1400;SDS011;46518;48.842;8.926;2023-02-13T11:56:45;16.45;;;12.68;;
1400;SDS011;46518;48.842;8.926;2023-02-13T11:59:44;16.85;;;11.82;;
1400;SDS011;46518;48.842;8.926;2023-02-13T12:02:18;18.55;;;12.00;;
1400;SDS011;46518;48.842;8.926;2023-02-13T12:04:51;21.83;;;14.40;;
1400;SDS011;46518;48.842;8.926;2023-02-13T12:07:39;16.67;;;12.43;;
1400;SDS011;46518;48.842;8.926;2023-02-13T12:10:26;15.70;;;12.32;;
1400;SDS011;46518;48.842;8.926;2023-02-13T12:13:05;15.27;;;12.07;;
1400;SDS011;46518;48.842;8.926;2023-02-13T12:15:44;13.75;;;11.88;;
1400;SDS011;46518;48.842;8.926;2023-02-13T12:18:25;15.57;;;11.48;;
1400;SDS011;46518;48.842;8.926;2023-02-13T12:21:04;12.63;;;9.43;;
1400;SDS011;46518;48.842;8.926;2023-02-13T12:23:53;17.15;;;12.10;;
1400;SDS011;46518;48.842;8.926;2023-02-13T12:26:38;15.57;;;11.52;;
1400;SDS011;46518;48.842;8.926;2023-02-13T12:29:15;16.05;;;11.80;;
1400;SDS011;46518;48.842;8.926;2023-02-13T12:32:04;15.50;;;11.70;;
1400;SDS011;46518;48.842;8.926;2023-02-13T12:34:53;12.13;;;9.65;;
1400;SDS011;46518;48.842;8.926;2023-02-13T12:37:41;13.02;;;10.70;;
1400;SDS011;46518;48.842;8.926;2023-02-13T12:40:41;16.77;;;11.55;;
1400;SDS011;46518;48.842;8.926;2023-02-13T12:46:43;13.15;;;10.27;;
1400;SDS011;46518;48.842;8.926;2023-02-13T12:49:32;16.27;;;11.48;;
1400;SDS011;46518;48.842;8.926;2023-02-13T12:52:28;13.63;;;10.18;;
1400;SDS011;46518;48.842;8.926;2023-02-13T12:55:19;13.05;;;9.82;;
1400;SDS011;46518;48.842;8.926;2023-02-13T12:58:14;14.57;;;10.40;;
1400;SDS011;46518;48.842;8.926;2023-02-13T13:01:04;16.40;;;10.25;;
1400;SDS011;46518;48.842;8.926;2023-02-13T13:03:54;14.57;;;9.40;;
1400;SDS011;46518;48.842;8.926;2023-02-13T13:06:46;13.77;;;12.45;;
1400;SDS011;46518;48.842;8.926;2023-02-13T13:12:30;17.13;;;11.93;;
1400;SDS011;46518;48.842;8.926;2023-02-13T13:15:27;16.73;;;13.15;;
1400;SDS011;46518;48.842;8.926;2023-02-13T13:18:20;14.00;;;11.30;;
1400;SDS011;46518;48.842;8.926;2023-02-13T13:21:20;15.65;;;10.77;;
1400;SDS011;46518;48.842;8.926;2023-02-13T13:24:04;14.60;;;11.52;;
1400;SDS011;46518;48.842;8.926;2023-02-13T13:26:53;12.93;;;10.63;;
1400;SDS011;46518;48.842;8.926;2023-02-13T13:29:29;15.10;;;11.88;;
1400;SDS011;46518;48.842;8.926;2023-02-13T13:32:12;14.05;;;10.73;;
1400;SDS011;46518;48.842;8.926;2023-02-13T13:34:46;11.25;;;10.05;;
1400;SDS011;46518;48.842;8.926;2023-02-13T13:37:18;14.48;;;11.20;;
1400;SDS011;46518;48.842;8.926;2023-02-13T13:39:57;13.00;;;10.25;;
1400;SDS011;46518;48.842;8.926;2023-02-13T13:42:33;12.80;;;10.52;;
1400;SDS011;46518;48.842;8.926;2023-02-13T13:45:14;14.27;;;10.55;;
1400;SDS011;46518;48.842;8.926;2023-02-13T13:51:13;13.43;;;10.48;;
1400;SDS011;46518;48.842;8.926;2023-02-13T13:57:05;12.57;;;10.30;;
1400;SDS011;46518;48.842;8.926;2023-02-13T13:59:55;12.70;;;10.73;;
1400;SDS011;46518;48.842;8.926;2023-02-13T14:02:36;9.48;;;8.50;;
1400;SDS011;46518;48.842;8.926;2023-02-13T14:05:19;10.75;;;8.98;;
1400;SDS011;46518;48.842;8.926;2023-02-13T14:07:59;10.88;;;9.30;;
1400;SDS011;46518;48.842;8.926;2023-02-13T14:13:38;12.35;;;9.30;;
1400;SDS011;46518;48.842;8.926;2023-02-13T14:19:23;14.05;;;9.90;;
1400;SDS011;46518;48.842;8.926;2023-02-13T14:25:04;12.77;;;10.40;;
1400;SDS011;46518;48.842;8.926;2023-02-13T14:27:55;12.15;;;10.85;;
1400;SDS011;46518;48.842;8.926;2023-02-13T14:30:27;15.13;;;12.20;;
1400;SDS011;46518;48.842;8.926;2023-02-13T14:32:59;13.18;;;10.75;;
1400;SDS011;46518;48.842;8.926;2023-02-13T14:35:33;14.50;;;10.43;;
1400;SDS011;46518;48.842;8.926;2023-02-13T14:38:16;11.23;;;10.02;;
1400;SDS011;46518;48.842;8.926;2023-02-13T14:41:02;13.35;;;11.93;;
1400;SDS011;46518;48.842;8.926;2023-02-13T14:43:45;13.50;;;11.40;;
1400;SDS011;46518;48.842;8.926;2023-02-13T14:46:34;14.77;;;10.95;;
1400;SDS011;46518;48.842;8.926;2023-02-13T14:49:25;13.98;;;10.43;;
1400;SDS011;46518;48.842;8.926;2023-02-13T14:52:05;10.75;;;9.20;;
1400;SDS011;46518;48.842;8.926;2023-02-13T14:54:54;12.10;;;10.23;;
1400;SDS011;46518;48.842;8.926;2023-02-13T14:57:48;12.43;;;10.25;;
1400;SDS011;46518;48.842;8.926;2023-02-13T15:00:51;12.85;;;10.50;;
1400;SDS011;46518;48.842;8.926;2023-02-13T15:03:30;13.52;;;10.27;;
1400;SDS011;46518;48.842;8.926;2023-02-13T15:06:10;11.65;;;10.38;;
1400;SDS011;46518;48.842;8.926;2023-02-13T15:08:47;15.35;;;10.15;;
1400;SDS011;46518;48.842;8.926;2023-02-13T15:11:32;11.57;;;9.48;;
1400;SDS011;46518;48.842;8.926;2023-02-13T15:14:35;15.38;;;10.68;;
1400;SDS011;46518;48.842;8.926;2023-02-13T15:17:07;14.57;;;11.45;;
1400;SDS011;46518;48.842;8.926;2023-02-13T15:19:51;15.75;;;10.77;;
1400;SDS011;46518;48.842;8.926;2023-02-13T15:22:28;13.63;;;10.77;;
1400;SDS011;46518;48.842;8.926;2023-02-13T15:25:21;11.43;;;9.80;;
1400;SDS011;46518;48.842;8.926;2023-02-13T15:28:14;16.58;;;12.05;;
1400;SDS011;46518;48.842;8.926;2023-02-13T15:31:04;13.50;;;11.23;;
1400;SDS011;46518;48.842;8.926;2023-02-13T15:33:48;13.30;;;10.50;;
1400;SDS011;46518;48.842;8.926;2023-02-13T15:36:34;12.82;;;9.85;;
1400;SDS011;46518;48.842;8.926;2023-02-13T15:39:14;12.50;;;10.10;;
1400;SDS011;46518;48.842;8.926;2023-02-13T15:41:47;17.15;;;10.00;;
1400;SDS011;46518;48.842;8.926;2023-02-13T15:44:22;14.95;;;10.32;;
1400;SDS011;46518;48.842;8.926;2023-02-13T15:47:01;11.25;;;10.15;;
1400;SDS011;46518;48.842;8.926;2023-02-13T15:49:36;12.07;;;9.63;;
1400;SDS011;46518;48.842;8.926;2023-02-13T15:52:12;11.45;;;10.25;;
1400;SDS011;46518;48.842;8.926;2023-02-13T15:54:49;15.70;;;11.80;;
1400;SDS011;46518;48.842;8.926;2023-02-13T15:57:19;10.50;;;8.40;;
1400;SDS011;46518;48.842;8.926;2023-02-13T15:59:51;12.93;;;9.80;;
1400;SDS011;46518;48.842;8.926;2023-02-13T16:02:44;12.15;;;10.43;;
1400;SDS011;46518;48.842;8.926;2023-02-13T16:05:19;11.77;;;10.10;;
1400;SDS011;46518;48.842;8.926;2023-02-13T16:11:16;12.93;;;9.73;;
1400;SDS011;46518;48.842;8.926;2023-02-13T16:14:03;11.93;;;10.65;;
1400;SDS011;46518;48.842;8.926;2023-02-13T16:16:41;14.50;;;11.23;;
1400;SDS011;46518;48.842;8.926;2023-02-13T16:22:15;20.58;;;14.45;;
1400;SDS011;46518;48.842;8.926;2023-02-13T16:24:51;16.50;;;12.70;;